Time;durP1;ratioP1;P1;durP2;ratioP2;P2;SDS_P1;SDS_P2;PMS_P1;PMS_P2;Temp;Humidity;BMP_temperature;BMP_pressure;BME280_temperature;BME280_humidity;BME280_pressure;Samples;Min_cycle;Max_cycle;Signal;HPM_P1;HPM_P2
2022/09/20 00:01:19;;;;;;;7.07;2.40;;;12.10;99.90;;;;;;5134162;27;20205;-53
2022/09/20 00:03:46;;;;;;;7.88;2.65;;;12.10;99.90;;;;;;5134385;27;20164;-53
2022/09/20 00:06:14;;;;;;;10.38;2.88;;;12.10;99.90;;;;;;5134374;27;20164;-53
2022/09/20 00:08:41;;;;;;;9.57;2.55;;;12.00;99.90;;;;;;5134147;27;20203;-52
2022/09/20 00:11:19;;;;;;;10.15;2.55;;;12.00;99.90;;;;;;5134432;27;20171;-53
2022/09/20 00:13:46;;;;;;;7.18;2.65;;;12.00;99.90;;;;;;5134179;27;20625;-53
2022/09/20 00:16:16;;;;;;;8.45;2.50;;;12.00;99.90;;;;;;5134090;27;20250;-54
2022/09/20 00:18:41;;;;;;;9.63;3.17;;;12.10;99.90;;;;;;5134039;27;20246;-52
2022/09/20 00:21:15;;;;;;;11.02;3.28;;;12.10;99.90;;;;;;5134396;27;20187;-54
2022/09/20 00:23:41;;;;;;;6.75;2.70;;;12.00;99.90;;;;;;5134032;27;20651;-52
2022/09/20 00:26:06;;;;;;;11.05;2.78;;;12.00;99.90;;;;;;5134305;27;20164;-53
2022/09/20 00:28:33;;;;;;;10.55;3.22;;;12.10;99.90;;;;;;5133718;27;20282;-52
2022/09/20 00:30:59;;;;;;;7.70;2.88;;;12.00;99.90;;;;;;5134077;27;20187;-52
2022/09/20 00:35:06;;;;;;;25.80;3.97;;;12.00;99.90;;;;;;5133708;27;20182;-53
2022/09/20 00:36:11;;;;;;;11.32;3.58;;;12.00;99.90;;;;;;5133465;27;20632;-53
2022/09/20 00:38:36;;;;;;;8.63;2.80;;;12.00;99.90;;;;;;5133895;27;20164;-52
2022/09/20 00:41:02;;;;;;;7.90;2.97;;;12.00;99.90;;;;;;5133609;27;20250;-53
2022/09/20 00:43:40;;;;;;;12.82;3.85;;;12.00;99.90;;;;;;5131813;27;20170;-54
2022/09/20 00:46:33;;;;;;;8.98;3.35;;;12.00;99.90;;;;;;5133975;27;20163;-53
2022/09/20 00:49:07;;;;;;;9.00;3.20;;;12.00;99.90;;;;;;5133362;27;20724;-53
2022/09/20 00:51:36;;;;;;;9.50;3.72;;;12.00;99.90;;;;;;5133778;27;20160;-52
2022/09/20 00:54:04;;;;;;;12.93;3.63;;;12.00;99.90;;;;;;5133292;27;20214;-52
2022/09/20 00:56:33;;;;;;;6.93;3.15;;;12.00;99.90;;;;;;5133587;27;20174;-52
2022/09/20 00:59:17;;;;;;;7.70;3.35;;;12.00;99.90;;;;;;5133267;27;20243;-52
2022/09/20 01:01:45;;;;;;;12.02;3.40;;;12.00;99.90;;;;;;5133522;27;20263;-52
2022/09/20 01:04:13;;;;;;;10.25;3.47;;;12.00;99.90;;;;;;5133037;27;20203;-52
2022/09/20 01:06:39;;;;;;;10.93;3.50;;;12.00;99.90;;;;;;5133431;27;20214;-52
2022/09/20 01:09:06;;;;;;;6.88;3.50;;;12.10;99.90;;;;;;5133613;27;20207;-52
2022/09/20 01:11:33;;;;;;;10.07;4.00;;;12.10;99.90;;;;;;5133332;27;20195;-53
2022/09/20 01:13:59;;;;;;;8.85;3.72;;;12.10;99.90;;;;;;5132997;27;20207;-52
2022/09/20 01:16:27;;;;;;;12.98;3.58;;;12.00;99.90;;;;;;5132916;27;20164;-52
2022/09/20 01:18:57;;;;;;;15.07;3.40;;;12.10;99.90;;;;;;5133295;27;20168;-52
2022/09/20 01:21:23;;;;;;;7.63;3.47;;;12.10;99.90;;;;;;5132922;27;20171;-53
2022/09/20 01:24:15;;;;;;;10.05;3.38;;;12.10;99.90;;;;;;5132958;27;20691;-52
2022/09/20 01:27:12;;;;;;;11.60;3.50;;;12.00;99.90;;;;;;5132835;27;20160;-52
2022/09/20 01:29:49;;;;;;;7.63;2.45;;;12.00;99.90;;;;;;5131677;27;20211;-52
2022/09/20 01:32:21;;;;;;;9.40;3.03;;;12.00;99.90;;;;;;5133038;27;20171;-53
2022/09/20 01:34:58;;;;;;;9.43;3.38;;;12.00;99.90;;;;;;5132724;27;20251;-52
2022/09/20 01:37:26;;;;;;;11.80;4.10;;;12.00;99.90;;;;;;5131560;27;20172;-52
2022/09/20 01:40:40;;;;;;;9.90;3.53;;;12.00;99.90;;;;;;5132738;27;20175;-52
2022/09/20 01:43:43;;;;;;;9.90;3.08;;;12.00;99.90;;;;;;5077440;27;20201;-53
2022/09/20 01:46:28;;;;;;;9.73;3.17;;;12.00;99.90;;;;;;5132754;27;20160;-52
2022/09/20 01:49:08;;;;;;;7.50;3.45;;;12.00;99.90;;;;;;5132723;27;20198;-52
2022/09/20 01:52:10;;;;;;;7.95;3.50;;;12.00;99.90;;;;;;5133119;27;20242;-52
2022/09/20 01:54:56;;;;;;;7.18;3.38;;;12.10;99.90;;;;;;5132870;27;20250;-52
2022/09/20 01:57:37;;;;;;;10.52;3.63;;;12.00;99.90;;;;;;5136522;27;20182;-52
2022/09/20 02:00:08;;;;;;;6.60;3.28;;;12.00;99.90;;;;;;5137298;27;20164;-52
2022/09/20 02:02:37;;;;;;;8.05;3.33;;;12.10;99.90;;;;;;5137334;27;20171;-52
2022/09/20 02:05:12;;;;;;;13.57;3.92;;;12.10;99.90;;;;;;5136984;27;20164;-52
2022/09/20 02:07:46;;;;;;;10.77;3.88;;;12.10;99.90;;;;;;5136662;27;20163;-52
2022/09/20 02:10:36;;;;;;;8.45;3.22;;;12.00;99.90;;;;;;5136637;27;20218;-52
2022/09/20 02:13:34;;;;;;;10.60;3.78;;;12.10;99.90;;;;;;5136903;27;20164;-52
2022/09/20 02:16:27;;;;;;;9.57;3.40;;;12.10;99.90;;;;;;5107092;27;20575;-52
2022/09/20 02:19:08;;;;;;;10.52;3.53;;;12.10;99.90;;;;;;5135849;27;20179;-53
2022/09/20 02:21:43;;;;;;;11.40;3.80;;;12.10;99.90;;;;;;5135392;27;20175;-54
2022/09/20 02:24:29;;;;;;;10.38;3.80;;;12.10;99.90;;;;;;5136330;27;20162;-53
2022/09/20 02:27:13;;;;;;;9.77;3.80;;;12.10;99.90;;;;;;5136192;27;20160;-54
2022/09/20 02:29:56;;;;;;;6.47;3.63;;;12.10;99.90;;;;;;5136203;27;20207;-52
2022/09/20 02:32:50;;;;;;;10.00;3.78;;;12.00;99.90;;;;;;5136070;27;20160;-54
2022/09/20 02:35:40;;;;;;;11.52;3.42;;;12.10;99.90;;;;;;5136367;27;20243;-54
2022/09/20 02:38:24;;;;;;;9.07;3.03;;;12.10;99.90;;;;;;5136619;27;20289;-53
2022/09/20 02:41:16;;;;;;;10.27;3.20;;;12.00;99.90;;;;;;5136045;27;20160;-53
2022/09/20 02:43:57;;;;;;;7.85;3.58;;;12.10;99.90;;;;;;5135933;27;20175;-53
2022/09/20 02:47:02;;;;;;;8.73;3.03;;;12.00;99.90;;;;;;5135836;27;20167;-53
2022/09/20 02:50:20;;;;;;;9.55;3.10;;;12.00;99.90;;;;;;5101190;27;20298;-52
2022/09/20 02:53:15;;;;;;;8.13;3.17;;;12.00;99.90;;;;;;5129880;27;20191;-54
2022/09/20 02:55:46;;;;;;;9.48;3.67;;;11.90;99.90;;;;;;5135654;27;20191;-53
2022/09/20 02:58:38;;;;;;;9.05;3.20;;;11.90;99.90;;;;;;5135718;27;20248;-52
2022/09/20 03:01:24;;;;;;;7.70;2.78;;;11.90;99.90;;;;;;5135921;27;20179;-52
2022/09/20 03:04:17;;;;;;;10.70;3.38;;;11.90;99.90;;;;;;5135655;27;20564;-53
2022/09/20 03:07:11;;;;;;;10.70;3.10;;;11.90;99.90;;;;;;5134667;27;20175;-52
2022/09/20 03:10:04;;;;;;;9.13;3.17;;;11.90;99.90;;;;;;5135184;27;20207;-53
2022/09/20 03:12:36;;;;;;;10.45;3.28;;;11.90;99.90;;;;;;5135420;27;20164;-54
2022/09/20 03:15:27;;;;;;;11.18;3.30;;;12.00;99.90;;;;;;5135328;27;20240;-53
2022/09/20 03:18:05;;;;;;;10.50;3.47;;;11.90;99.90;;;;;;5134770;27;20180;-54
2022/09/20 03:20:45;;;;;;;11.40;3.55;;;11.90;99.90;;;;;;5135215;27;20239;-53
2022/09/20 03:23:23;;;;;;;4.53;2.95;;;11.90;99.90;;;;;;5135170;27;20576;-53
2022/09/20 03:26:01;;;;;;;8.63;3.08;;;11.90;99.90;;;;;;5135475;27;20514;-53
2022/09/20 03:28:54;;;;;;;6.55;2.90;;;11.90;99.90;;;;;;5135010;27;20227;-53
2022/09/20 03:31:59;;;;;;;6.75;2.88;;;11.90;99.90;;;;;;5135358;27;20519;-54
2022/09/20 03:35:02;;;;;;;10.73;2.80;;;11.80;99.90;;;;;;5134912;27;20285;-53
2022/09/20 03:37:54;;;;;;;13.07;3.03;;;11.80;99.90;;;;;;5133638;27;20199;-52
2022/09/20 03:40:35;;;;;;;11.18;3.35;;;11.80;99.90;;;;;;5135159;27;20540;-54
2022/09/20 03:43:16;;;;;;;8.15;2.83;;;11.80;99.90;;;;;;5134691;27;20198;-53
2022/09/20 03:46:01;;;;;;;9.60;2.67;;;11.70;99.90;;;;;;5134900;27;20636;-54
2022/09/20 03:48:35;;;;;;;5.57;2.72;;;11.70;99.90;;;;;;5134559;27;20203;-54
2022/09/20 03:51:31;;;;;;;9.25;2.78;;;11.70;99.90;;;;;;5134540;27;20660;-54
2022/09/20 03:54:16;;;;;;;8.18;3.53;;;11.70;99.90;;;;;;5134428;27;20220;-53
2022/09/20 03:56:58;;;;;;;5.55;2.25;;;11.80;99.90;;;;;;5134773;27;20254;-53
2022/09/20 04:00:03;;;;;;;5.18;2.50;;;11.80;99.90;;;;;;5133142;27;20160;-52
2022/09/20 04:02:59;;;;;;;9.07;3.10;;;11.80;99.90;;;;;;5133351;27;20171;-52
2022/09/20 04:05:35;;;;;;;6.38;2.88;;;11.70;99.90;;;;;;5133057;27;20187;-52
2022/09/20 04:08:39;;;;;;;7.68;2.90;;;11.70;99.90;;;;;;5134125;27;20156;-53
2022/09/20 04:11:29;;;;;;;9.65;2.65;;;11.70;99.90;;;;;;5102774;27;20209;-52
2022/09/20 04:14:18;;;;;;;13.30;3.05;;;11.70;99.90;;;;;;5134119;27;20612;-52
2022/09/20 04:17:26;;;;;;;11.13;3.15;;;11.70;99.90;;;;;;5133973;27;20160;-52
2022/09/20 04:20:12;;;;;;;10.10;2.78;;;11.70;99.90;;;;;;5133138;27;20573;-52
2022/09/20 04:22:42;;;;;;;5.53;2.50;;;11.70;99.90;;;;;;5133664;27;20164;-52
2022/09/20 04:25:21;;;;;;;7.22;3.17;;;11.80;99.90;;;;;;5133701;27;20251;-51
2022/09/20 04:27:58;;;;;;;11.73;3.22;;;11.70;99.90;;;;;;5133722;27;20160;-51
2022/09/20 04:30:29;;;;;;;12.55;3.55;;;11.70;99.90;;;;;;5134042;27;20495;-52
2022/09/20 04:33:03;;;;;;;7.10;3.42;;;11.70;99.90;;;;;;5133705;27;20508;-51
2022/09/20 04:38:39;;;;;;;10.73;4.03;;;11.80;99.90;;;;;;5133733;27;20663;-52
2022/09/20 04:41:19;;;;;;;10.52;4.30;;;11.80;99.90;;;;;;5133963;27;20271;-51
2022/09/20 04:44:26;;;;;;;12.85;4.53;;;11.70;99.90;;;;;;5133800;27;20164;-52
2022/09/20 04:46:52;;;;;;;16.33;5.35;;;11.70;99.90;;;;;;5132683;27;20164;-51
2022/09/20 04:49:36;;;;;;;11.30;5.30;;;11.70;99.90;;;;;;5133605;27;20291;-52
2022/09/20 04:52:24;;;;;;;18.40;6.50;;;11.70;99.90;;;;;;5133648;27;20212;-52
2022/09/20 04:55:22;;;;;;;11.82;7.07;;;11.70;99.90;;;;;;5103861;27;20680;-52
2022/09/20 04:57:57;;;;;;;11.60;7.47;;;11.70;99.90;;;;;;5133295;27;20209;-52
2022/09/20 05:00:29;;;;;;;12.52;7.63;;;11.70;99.90;;;;;;5133120;27;20164;-52
2022/09/20 05:03:10;;;;;;;13.18;7.43;;;11.70;99.90;;;;;;5133500;27;20501;-52
2022/09/20 05:06:03;;;;;;;13.20;7.47;;;11.70;99.90;;;;;;5132294;27;20191;-52
2022/09/20 05:08:45;;;;;;;13.32;6.97;;;11.70;99.90;;;;;;5133250;27;20272;-52
2022/09/20 05:11:20;;;;;;;12.95;7.03;;;11.70;99.90;;;;;;5133098;27;20156;-52
2022/09/20 05:13:55;;;;;;;11.15;7.13;;;11.70;99.90;;;;;;5133048;27;20195;-52
2022/09/20 05:16:32;;;;;;;12.88;7.95;;;11.70;99.90;;;;;;5133126;27;20220;-52
2022/09/20 05:19:25;;;;;;;15.30;7.72;;;11.70;99.90;;;;;;5132924;27;20163;-52
2022/09/20 05:22:20;;;;;;;15.48;8.13;;;11.70;99.90;;;;;;5133250;27;20192;-51
2022/09/20 05:25:05;;;;;;;12.73;9.15;;;11.70;99.90;;;;;;5132838;27;20167;-52
2022/09/20 05:28:02;;;;;;;16.10;8.10;;;11.70;99.90;;;;;;5133346;27;20174;-52
2022/09/20 05:30:51;;;;;;;14.07;7.65;;;11.70;99.90;;;;;;5132730;27;20175;-52
2022/09/20 05:33:45;;;;;;;16.77;8.35;;;11.70;99.90;;;;;;5132765;27;20536;-53
2022/09/20 05:36:21;;;;;;;14.23;7.97;;;11.70;99.90;;;;;;5132561;27;20657;-53
2022/09/20 05:39:16;;;;;;;16.50;8.10;;;11.70;99.90;;;;;;5131290;27;20616;-52
2022/09/20 05:41:57;;;;;;;15.50;6.82;;;11.80;99.90;;;;;;5131278;27;20160;-53
2022/09/20 05:44:49;;;;;;;15.90;7.82;;;11.80;99.90;;;;;;5132531;27;20159;-53
2022/09/20 05:47:37;;;;;;;11.38;6.65;;;11.70;99.90;;;;;;5129409;28;20179;-52
2022/09/20 05:50:22;;;;;;;13.93;7.40;;;11.80;99.90;;;;;;5132758;27;20593;-53
2022/09/20 05:53:21;;;;;;;12.43;7.22;;;11.80;99.90;;;;;;5132752;27;20217;-52
2022/09/20 05:56:22;;;;;;;8.93;5.63;;;11.80;99.90;;;;;;5132410;27;20546;-53
2022/09/20 05:59:05;;;;;;;9.82;6.47;;;11.90;99.90;;;;;;5108352;27;20187;-53
2022/09/20 06:01:43;;;;;;;9.88;6.00;;;11.80;99.90;;;;;;5133123;27;20521;-53
2022/09/20 06:04:38;;;;;;;14.40;7.20;;;11.80;99.90;;;;;;5132518;27;20248;-52
2022/09/20 06:07:22;;;;;;;14.35;6.50;;;11.80;99.90;;;;;;5124323;28;20589;-52
2022/09/20 06:10:06;;;;;;;13.43;6.35;;;11.80;99.90;;;;;;5132305;27;20652;-52
2022/09/20 06:12:57;;;;;;;10.73;5.80;;;11.80;99.90;;;;;;5132974;27;20164;-53
2022/09/20 06:15:54;;;;;;;10.93;6.43;;;11.70;99.90;;;;;;5132355;27;20153;-52
2022/09/20 06:18:39;;;;;;;14.50;6.28;;;11.70;99.90;;;;;;5132358;27;20191;-54
2022/09/20 06:21:31;;;;;;;9.55;5.97;;;11.70;99.90;;;;;;5132487;27;20175;-53
2022/09/20 06:24:00;;;;;;;12.90;6.13;;;11.80;99.90;;;;;;5132330;27;20163;-53
2022/09/20 06:26:32;;;;;;;10.85;6.45;;;11.90;99.90;;;;;;5132468;27;20251;-53
2022/09/20 06:29:05;;;;;;;12.05;6.22;;;11.90;99.90;;;;;;5132197;27;20200;-53
2022/09/20 06:31:31;;;;;;;11.45;5.53;;;12.00;99.90;;;;;;5132592;27;20160;-53
2022/09/20 06:34:12;;;;;;;11.68;5.57;;;12.10;99.90;;;;;;5132202;27;20345;-53
2022/09/20 06:42:59;;;;;;;14.18;5.70;;;12.30;99.90;;;;;;5129318;27;20252;-53
2022/09/20 06:45:24;;;;;;;10.85;5.55;;;12.50;99.90;;;;;;5135802;27;20156;-53
2022/09/20 06:47:50;;;;;;;11.23;5.10;;;12.50;99.90;;;;;;5135777;27;20537;-54
2022/09/20 06:50:16;;;;;;;8.57;5.78;;;12.60;99.90;;;;;;5135819;27;20545;-54
2022/09/20 06:52:44;;;;;;;13.63;5.85;;;12.70;99.90;;;;;;5135673;27;20160;-54
2022/09/20 06:55:21;;;;;;;10.05;5.15;;;12.80;99.90;;;;;;5135568;27;20204;-53
2022/09/20 06:57:47;;;;;;;8.52;5.30;;;12.70;99.90;;;;;;5135613;27;20172;-53
2022/09/20 07:00:14;;;;;;;9.85;4.93;;;12.70;99.90;;;;;;5135606;27;20160;-54
2022/09/20 07:02:41;;;;;;;11.75;5.82;;;12.80;99.90;;;;;;5134322;27;20175;-54
2022/09/20 07:05:13;;;;;;;12.60;5.45;;;12.90;99.90;;;;;;5135580;27;20217;-53
2022/09/20 07:07:39;;;;;;;11.50;5.50;;;12.90;99.90;;;;;;5134206;27;20168;-53
2022/09/20 07:10:05;;;;;;;10.70;4.75;;;12.90;99.90;;;;;;5135954;27;20607;-54
2022/09/20 07:12:33;;;;;;;6.85;4.57;;;12.90;99.90;;;;;;5135936;27;20175;-53
2022/09/20 07:14:59;;;;;;;11.25;4.80;;;13.00;99.90;;;;;;5135586;27;20175;-54
2022/09/20 07:17:25;;;;;;;8.60;4.53;;;13.00;99.90;;;;;;5135227;27;20210;-54
2022/09/20 07:19:50;;;;;;;12.45;4.55;;;13.00;99.90;;;;;;5135158;27;20171;-54
2022/09/20 07:22:16;;;;;;;9.27;4.38;;;13.00;99.90;;;;;;5135251;27;20164;-54
2022/09/20 07:24:43;;;;;;;10.77;5.70;;;13.00;99.90;;;;;;5135099;27;20159;-54
2022/09/20 07:27:10;;;;;;;13.60;5.57;;;13.10;99.90;;;;;;5134965;27;20188;-54
2022/09/20 07:29:36;;;;;;;9.55;4.97;;;13.20;99.90;;;;;;5135034;27;20332;-53
2022/09/20 07:32:02;;;;;;;10.48;5.25;;;13.20;99.90;;;;;;5135407;27;20201;-54
2022/09/20 07:34:28;;;;;;;14.15;5.40;;;11.80;99.90;;;;;;5134890;27;20168;-53
2022/09/20 07:36:56;;;;;;;13.95;4.55;;;13.50;99.90;;;;;;5134756;27;20172;-53
2022/09/20 07:39:21;;;;;;;7.78;4.32;;;13.70;99.90;;;;;;5135099;27;20171;-54
2022/09/20 07:41:49;;;;;;;5.75;4.13;;;13.80;99.90;;;;;;5134722;27;20172;-54
2022/09/20 07:44:23;;;;;;;9.95;3.78;;;14.00;99.90;;;;;;5135009;27;20195;-54
2022/09/20 07:46:59;;;;;;;11.50;3.70;;;14.10;99.90;;;;;;5134947;27;20163;-54
2022/09/20 07:49:28;;;;;;;10.32;4.03;;;14.10;99.90;;;;;;5134860;27;20340;-53
2022/09/20 07:51:54;;;;;;;4.78;3.70;;;14.20;99.90;;;;;;5134855;27;20164;-53
2022/09/20 07:54:20;;;;;;;6.82;3.22;;;14.20;99.90;;;;;;5134296;27;20716;-54
2022/09/20 07:56:46;;;;;;;9.43;3.58;;;14.30;99.90;;;;;;5134471;27;20524;-53
2022/09/20 07:59:12;;;;;;;7.90;3.15;;;14.40;99.90;;;;;;5134418;27;20221;-53
2022/09/20 08:01:39;;;;;;;9.68;3.30;;;14.60;99.90;;;;;;5134232;27;20168;-53
2022/09/20 08:04:06;;;;;;;6.65;3.05;;;14.30;99.90;;;;;;5134626;27;20641;-53
2022/09/20 08:06:35;;;;;;;6.53;2.70;;;14.30;99.90;;;;;;5134582;27;20525;-53
2022/09/20 08:09:00;;;;;;;8.18;2.90;;;14.50;99.90;;;;;;5134376;27;20743;-53
2022/09/20 08:11:28;;;;;;;6.90;2.40;;;14.70;99.90;;;;;;5134416;27;20160;-53
2022/09/20 08:13:55;;;;;;;8.35;2.90;;;14.70;99.90;;;;;;5134412;27;20225;-53
2022/09/20 08:16:21;;;;;;;7.75;3.20;;;14.70;99.90;;;;;;5134346;27;20175;-53
2022/09/20 08:18:49;;;;;;;9.57;2.90;;;14.70;99.90;;;;;;5134011;27;20168;-54
2022/09/20 08:21:15;;;;;;;6.03;2.80;;;14.60;99.90;;;;;;5134688;27;20168;-53
2022/09/20 08:23:43;;;;;;;5.85;3.08;;;14.60;99.90;;;;;;5134055;27;20168;-53
2022/09/20 08:26:11;;;;;;;7.28;2.88;;;14.70;99.90;;;;;;5133955;27;20247;-54
2022/09/20 08:28:38;;;;;;;9.10;3.47;;;14.80;99.90;;;;;;5133779;27;20196;-53
2022/09/20 08:31:11;;;;;;;7.55;3.65;;;14.60;99.90;;;;;;5134154;27;20164;-52
2022/09/20 08:33:38;;;;;;;7.07;2.70;;;14.70;99.90;;;;;;5133847;27;20164;-52
2022/09/20 08:36:05;;;;;;;7.47;3.35;;;14.70;99.90;;;;;;5134206;27;20196;-52
2022/09/20 08:38:32;;;;;;;5.30;2.90;;;14.70;99.90;;;;;;5133808;27;20179;-52
2022/09/20 08:41:02;;;;;;;7.75;3.00;;;14.60;99.90;;;;;;5133604;27;20187;-52
2022/09/20 08:43:33;;;;;;;7.30;3.08;;;14.70;99.90;;;;;;5133513;27;20201;-53
2022/09/20 08:46:02;;;;;;;7.93;2.60;;;14.60;99.90;;;;;;5133714;27;20172;-52
2022/09/20 08:48:33;;;;;;;11.40;3.47;;;14.60;99.90;;;;;;5133287;27;20227;-52
2022/09/20 08:51:01;;;;;;;8.07;3.30;;;14.90;99.90;;;;;;5133373;27;20246;-53
2022/09/20 08:53:28;;;;;;;9.35;4.28;;;15.20;99.90;;;;;;5133117;27;20268;-52
2022/09/20 08:55:58;;;;;;;11.77;9.27;;;15.20;99.90;;;;;;5133286;27;20168;-54
2022/09/20 08:58:27;;;;;;;6.18;4.00;;;15.10;99.90;;;;;;5133323;27;20185;-52
2022/09/20 09:00:58;;;;;;;8.38;3.13;;;15.10;99.90;;;;;;5133459;27;20283;-54
2022/09/20 09:03:26;;;;;;;7.03;3.17;;;15.20;99.90;;;;;;5131971;27;20168;-54
2022/09/20 09:05:56;;;;;;;9.98;3.15;;;15.40;99.90;;;;;;5132677;27;20185;-53
2022/09/20 09:08:34;;;;;;;11.45;3.63;;;15.40;99.90;;;;;;5133098;27;20679;-54
2022/09/20 09:11:08;;;;;;;5.00;2.45;;;15.70;99.90;;;;;;5133126;27;20168;-53
2022/09/20 09:13:52;;;;;;;6.93;2.63;;;15.90;99.90;;;;;;5133399;27;20633;-54
2022/09/20 09:16:19;;;;;;;7.95;2.15;;;16.00;99.90;;;;;;5133140;27;20164;-54
2022/09/20 09:18:48;;;;;;;9.73;2.72;;;15.70;99.90;;;;;;5133253;27;20251;-54
2022/09/20 09:21:22;;;;;;;5.55;2.05;;;15.70;99.90;;;;;;5133153;27;20167;-53
2022/09/20 09:24:02;;;;;;;9.20;2.33;;;15.80;99.90;;;;;;5131612;27;20159;-53
2022/09/20 09:26:36;;;;;;;7.05;2.13;;;16.10;99.90;;;;;;5132745;27;20242;-55
2022/09/20 09:29:23;;;;;;;4.25;1.70;;;16.10;99.90;;;;;;5133097;27;20703;-53
2022/09/20 09:31:51;;;;;;;4.70;1.75;;;16.00;99.90;;;;;;5132731;27;20233;-53
2022/09/20 09:34:28;;;;;;;7.20;2.30;;;16.30;99.90;;;;;;5132519;27;20799;-54
2022/09/20 09:36:55;;;;;;;6.78;1.88;;;16.40;99.90;;;;;;5132619;27;20650;-53
2022/09/20 09:39:20;;;;;;;6.78;1.65;;;16.20;99.90;;;;;;5132855;27;20168;-54
2022/09/20 09:41:46;;;;;;;7.45;2.13;;;16.00;99.90;;;;;;5132682;27;20192;-54
2022/09/20 09:44:21;;;;;;;7.32;1.98;;;15.80;99.90;;;;;;5132861;27;20648;-54
2022/09/20 09:46:49;;;;;;;14.77;1.88;;;15.60;99.90;;;;;;5132510;27;20163;-53
2022/09/20 09:49:20;;;;;;;4.65;1.80;;;15.50;99.90;;;;;;5131620;28;20239;-54
2022/09/20 09:51:59;;;;;;;4.97;1.77;;;15.30;99.90;;;;;;5132522;27;20659;-53
2022/09/20 09:54:28;;;;;;;6.00;1.52;;;15.20;99.90;;;;;;5132399;27;20682;-53
2022/09/20 09:57:19;;;;;;;10.52;1.65;;;15.10;99.90;;;;;;5131126;28;20168;-52
2022/09/20 10:00:06;;;;;;;5.32;1.52;;;15.10;99.90;;;;;;5132266;27;20167;-53
2022/09/20 10:02:59;;;;;;;4.63;1.42;;;15.00;99.90;;;;;;5133076;27;20561;-54
2022/09/20 10:05:31;;;;;;;7.05;1.73;;;14.90;99.90;;;;;;5132671;27;20526;-54
2022/09/20 10:08:09;;;;;;;2.80;1.60;;;14.90;99.90;;;;;;5132296;27;20628;-53
2022/09/20 10:10:44;;;;;;;4.00;1.50;;;14.90;99.90;;;;;;5132540;27;20184;-53
2022/09/20 10:13:36;;;;;;;8.50;1.80;;;15.00;99.90;;;;;;5132256;27;20649;-53
2022/09/20 10:16:43;;;;;;;6.90;1.52;;;15.10;99.90;;;;;;5132593;27;20179;-54
2022/09/20 10:19:45;;;;;;;9.55;1.80;;;15.10;99.90;;;;;;5107571;27;20179;-54
2022/09/20 10:22:40;;;;;;;5.38;1.48;;;19.10;99.90;;;;;;5136303;27;20164;-53
2022/09/20 10:25:36;;;;;;;6.20;2.25;;;15.20;99.90;;;;;;5136660;27;20179;-53
2022/09/20 10:28:31;;;;;;;5.70;1.50;;;15.10;99.90;;;;;;5136519;27;20182;-53
2022/09/20 10:31:04;;;;;;;4.50;1.55;;;15.10;99.90;;;;;;5136470;27;20175;-53
2022/09/20 10:34:02;;;;;;;7.03;1.40;;;15.00;99.90;;;;;;5136487;27;20164;-53
2022/09/20 10:36:55;;;;;;;4.60;1.40;;;15.00;99.90;;;;;;5136274;27;20172;-54
2022/09/20 10:39:32;;;;;;;4.43;1.45;;;14.90;99.90;;;;;;5136306;27;20225;-55
2022/09/20 10:45:17;;;;;;;8.35;1.80;;;14.80;99.90;;;;;;5135938;27;20166;-54
2022/09/20 10:48:06;;;;;;;2.17;1.17;;;14.80;99.90;;;;;;5135953;27;20187;-55
2022/09/20 10:50:47;;;;;;;6.35;1.30;;;14.70;99.90;;;;;;5127778;27;20199;-53
2022/09/20 10:53:26;;;;;;;5.20;1.38;;;14.70;99.90;;;;;;5135635;27;20160;-54
2022/09/20 10:56:07;;;;;;;7.22;1.38;;;14.60;99.90;;;;;;5135661;27;20221;-54
2022/09/20 10:58:53;;;;;;;5.88;1.30;;;14.50;99.90;;;;;;5136208;27;20204;-54
2022/09/20 11:01:58;;;;;;;5.25;1.67;;;14.40;99.90;;;;;;5135418;27;20224;-53
2022/09/20 11:04:32;;;;;;;4.88;1.73;;;14.10;99.90;;;;;;5135481;27;20640;-54
2022/09/20 11:07:20;;;;;;;6.72;1.88;;;13.90;99.90;;;;;;5135520;27;20167;-54
2022/09/20 11:09:54;;;;;;;4.07;1.50;;;13.80;99.90;;;;;;5135476;27;20196;-54
2022/09/20 11:12:47;;;;;;;5.00;1.55;;;13.80;99.90;;;;;;5135409;27;20660;-53
2022/09/20 11:15:24;;;;;;;3.83;1.40;;;13.80;99.90;;;;;;5135328;27;20172;-53
2022/09/20 11:18:11;;;;;;;5.57;1.30;;;13.80;99.90;;;;;;5135381;27;20228;-54
2022/09/20 11:20:43;;;;;;;3.50;1.23;;;13.90;99.90;;;;;;5135212;27;20160;-53
2022/09/20 11:23:16;;;;;;;4.28;1.25;;;14.00;99.90;;;;;;5135235;27;20172;-54
2022/09/20 11:25:49;;;;;;;6.43;1.50;;;14.00;99.90;;;;;;5135183;27;20164;-54
2022/09/20 11:28:26;;;;;;;4.55;2.15;;;14.10;99.90;;;;;;5134702;27;20184;-55
2022/09/20 11:31:17;;;;;;;5.78;2.13;;;14.20;99.90;;;;;;5133720;27;20168;-54
2022/09/20 11:33:48;;;;;;;2.42;1.00;;;14.20;99.90;;;;;;5135175;27;20171;-54
2022/09/20 11:36:33;;;;;;;4.88;1.50;;;14.20;99.90;;;;;;5135200;27;20263;-54
2022/09/20 11:39:08;;;;;;;3.80;1.00;;;14.20;99.90;;;;;;5134839;27;20171;-54
2022/09/20 11:41:34;;;;;;;1.83;0.98;;;14.20;99.90;;;;;;5135223;27;20176;-54
2022/09/20 11:44:06;;;;;;;5.55;1.80;;;14.40;99.90;;;;;;5135159;27;20172;-54
2022/09/20 11:46:43;;;;;;;5.85;1.60;;;14.50;99.90;;;;;;5135143;27;20192;-54
2022/09/20 11:49:45;;;;;;;4.30;1.38;;;14.60;99.90;;;;;;5134628;27;20278;-55
2022/09/20 11:52:27;;;;;;;3.13;1.40;;;14.80;99.90;;;;;;5105347;27;20180;-53
2022/09/20 11:55:20;;;;;;;5.18;1.63;;;14.90;99.90;;;;;;5133179;27;20715;-53
2022/09/20 11:57:59;;;;;;;2.47;1.52;;;14.90;99.90;;;;;;5134581;27;20172;-54
2022/09/20 12:00:31;;;;;;;3.10;1.60;;;15.00;99.90;;;;;;5134780;27;20547;-54
2022/09/20 12:02:58;;;;;;;4.22;2.22;;;15.20;99.90;;;;;;5134699;27;20164;-53
2022/09/20 12:05:40;;;;;;;5.53;2.13;;;15.10;99.90;;;;;;5134394;27;20528;-53
2022/09/20 12:08:29;;;;;;;3.25;1.70;;;15.20;99.90;;;;;;5134194;27;20268;-54
2022/09/20 12:11:10;;;;;;;4.57;1.90;;;15.20;99.90;;;;;;5124690;27;20540;-54
2022/09/20 12:13:40;;;;;;;4.57;1.20;;;15.30;99.90;;;;;;5134206;27;20528;-55
2022/09/20 12:16:15;;;;;;;4.30;1.02;;;15.30;99.90;;;;;;5134220;27;20172;-53
2022/09/20 12:19:05;;;;;;;3.88;1.20;;;15.40;99.90;;;;;;5134184;27;20166;-53
2022/09/20 12:21:57;;;;;;;3.63;1.30;;;15.40;99.90;;;;;;5134356;27;20168;-54
2022/09/20 12:24:24;;;;;;;4.13;1.30;;;15.50;99.90;;;;;;5133930;27;20164;-54
2022/09/20 12:26:52;;;;;;;3.53;1.40;;;15.60;99.90;;;;;;5133991;27;20283;-55
2022/09/20 12:29:23;;;;;;;4.03;1.38;;;15.60;99.90;;;;;;5134085;27;20212;-54
2022/09/20 12:31:51;;;;;;;2.40;0.80;;;15.60;99.90;;;;;;5133861;27;20160;-54
2022/09/20 12:34:17;;;;;;;4.82;1.50;;;15.60;99.90;;;;;;5133797;27;20656;-54
2022/09/20 12:36:45;;;;;;;2.25;1.13;;;15.60;99.90;;;;;;5133713;27;20167;-54
2022/09/20 12:39:10;;;;;;;5.93;1.25;;;15.60;99.90;;;;;;5133187;27;20174;-54
2022/09/20 12:41:51;;;;;;;6.15;1.45;;;15.50;99.90;;;;;;5133617;27;20584;-55
2022/09/20 12:44:42;;;;;;;6.18;1.20;;;15.50;99.90;;;;;;5133603;27;20171;-55
2022/09/20 12:47:10;;;;;;;4.75;1.35;;;15.40;99.90;;;;;;5133772;27;20164;-54
2022/09/20 12:52:56;;;;;;;7.90;2.00;;;15.40;99.90;;;;;;5133406;27;20701;-54
2022/09/20 12:55:41;;;;;;;3.95;1.15;;;15.30;99.90;;;;;;5133358;27;20172;-55
2022/09/20 12:58:32;;;;;;;2.60;0.85;;;15.00;99.90;;;;;;5133648;27;20265;-53
2022/09/20 13:01:03;;;;;;;3.30;1.20;;;14.90;99.90;;;;;;5124214;27;20267;-54
2022/09/20 13:03:36;;;;;;;2.83;1.00;;;14.90;99.90;;;;;;5133676;27;20247;-53
2022/09/20 13:06:14;;;;;;;7.35;1.30;;;15.00;99.90;;;;;;5133555;27;20589;-53
2022/09/20 13:08:58;;;;;;;3.92;0.90;;;14.90;99.90;;;;;;5133322;27;20279;-53
2022/09/20 13:11:23;;;;;;;2.67;1.42;;;14.90;99.90;;;;;;5133086;27;20168;-53
2022/09/20 13:14:27;;;;;;;2.03;1.10;;;15.00;99.90;;;;;;5133074;27;20183;-53
2022/09/20 13:17:12;;;;;;;4.93;1.08;;;15.10;99.90;;;;;;5123353;27;20179;-53
2022/09/20 13:19:45;;;;;;;4.82;1.75;;;15.20;99.90;;;;;;5132972;27;20255;-53
2022/09/20 13:22:13;;;;;;;2.17;1.20;;;15.10;99.90;;;;;;5132874;27;20160;-54
2022/09/20 13:24:46;;;;;;;7.70;1.85;;;15.20;99.90;;;;;;5132806;27;20156;-54
2022/09/20 13:27:19;;;;;;;2.58;1.08;;;15.30;99.90;;;;;;5131935;27;20215;-53
2022/09/20 13:29:45;;;;;;;1.92;1.35;;;15.30;99.90;;;;;;5132954;27;20207;-53
2022/09/20 13:32:23;;;;;;;2.28;1.02;;;15.40;99.90;;;;;;5132762;27;20216;-54
2022/09/20 13:35:15;;;;;;;3.03;0.98;;;15.40;99.90;;;;;;5132577;27;20168;-54
2022/09/20 13:37:52;;;;;;;1.88;0.88;;;15.40;99.90;;;;;;5131921;27;20180;-53
2022/09/20 13:40:32;;;;;;;3.90;1.30;;;15.40;99.90;;;;;;5132454;27;20171;-52
2022/09/20 13:43:01;;;;;;;2.50;0.95;;;15.50;99.90;;;;;;5132370;27;20689;-53
2022/09/20 13:45:27;;;;;;;3.75;1.13;;;15.50;99.90;;;;;;5132373;27;20160;-53
2022/09/20 13:47:55;;;;;;;2.55;0.93;;;15.50;99.90;;;;;;5132592;27;20246;-54
2022/09/20 13:50:33;;;;;;;2.55;1.00;;;15.60;99.90;;;;;;5132775;27;20195;-53
2022/09/20 13:53:01;;;;;;;4.10;1.13;;;15.80;99.90;;;;;;5139149;27;20615;-54
2022/09/20 13:55:39;;;;;;;3.45;1.00;;;16.10;99.90;;;;;;5139365;27;20531;-54